MWCR 161400Z 23005KT 9999 FEW018 BKN035 26/23 Q1016

MKJP 161400Z 33004KT 9999 FEW022 26/20 Q1017

MWCB 161400Z 25002KT 9999 FEW016 27/25 Q1017

MKJS 161400Z VRB02KT 9999 FEW022 28/20 Q1016